createdAt,value
2022-08-17T00:02:21.173Z,4.25
2022-08-17T00:06:29.758Z,5.10
2022-08-17T00:09:37.201Z,5.03
2022-08-17T00:12:44.562Z,4.68
2022-08-17T00:15:49.220Z,4.70
2022-08-17T00:19:02.109Z,4.95
2022-08-17T00:22:34.964Z,5.05
2022-08-17T00:25:36.262Z,5.07
2022-08-17T00:28:40.836Z,5.47
2022-08-17T00:36:09.851Z,4.78
2022-08-17T00:39:26.280Z,4.80
2022-08-17T00:42:33.680Z,4.88
2022-08-17T00:45:37.878Z,4.85
2022-08-17T00:48:42.878Z,4.70
2022-08-17T00:51:52.564Z,4.55
2022-08-17T00:55:10.399Z,4.47
2022-08-17T01:03:32.396Z,4.80
2022-08-17T01:06:37.285Z,4.93
2022-08-17T01:09:42.622Z,4.72
2022-08-17T01:12:46.481Z,4.30
2022-08-17T01:15:58.306Z,4.50
2022-08-17T01:19:14.926Z,4.25
2022-08-17T01:22:21.687Z,4.18
2022-08-17T01:25:27.402Z,4.30
2022-08-17T01:28:54.686Z,4.10
2022-08-17T01:36:45.847Z,4.60
2022-08-17T01:48:47.508Z,4.68
2022-08-17T01:51:51.630Z,4.25
2022-08-17T01:54:56.387Z,4.10
2022-08-17T01:58:00.232Z,3.78
2022-08-17T02:01:07.992Z,3.63
2022-08-17T02:04:13.607Z,4.28
2022-08-17T02:07:18.170Z,4.15
2022-08-17T02:10:34.013Z,4.72
2022-08-17T02:13:38.214Z,4.35
2022-08-17T02:21:29.129Z,4.90
2022-08-17T02:25:01.253Z,4.93
2022-08-17T02:28:00.735Z,4.60
2022-08-17T02:31:07.766Z,4.18
2022-08-17T02:34:12.537Z,4.03
2022-08-17T02:37:18.227Z,4.25
2022-08-17T02:49:00.399Z,4.10
2022-08-17T02:52:06.617Z,4.22
2022-08-17T02:55:26.532Z,3.80
2022-08-17T02:58:35.261Z,4.40
2022-08-17T03:06:23.983Z,3.92
2022-08-17T03:09:31.305Z,3.95
2022-08-17T03:12:40.879Z,4.00
2022-08-17T03:15:46.156Z,4.30
2022-08-17T03:18:49.908Z,4.10
2022-08-17T03:21:54.844Z,4.28
2022-08-17T03:24:59.652Z,4.30
2022-08-17T03:28:05.384Z,4.20
2022-08-17T03:31:09.422Z,3.97
2022-08-17T03:34:14.855Z,3.80
2022-08-17T03:37:21.538Z,3.97
2022-08-17T03:44:49.157Z,3.85
2022-08-17T03:48:52.481Z,3.78
2022-08-17T03:52:16.079Z,3.60
2022-08-17T03:58:42.882Z,3.90
2022-08-17T04:06:06.277Z,4.20
2022-08-17T04:09:25.889Z,3.90
2022-08-17T04:12:49.246Z,3.80
2022-08-17T04:15:54.380Z,3.72
2022-08-17T04:18:59.014Z,3.95
2022-08-17T04:22:05.624Z,3.85
2022-08-17T04:25:15.667Z,3.95
2022-08-17T04:28:20.542Z,4.13
2022-08-17T04:31:26.455Z,4.05
2022-08-17T04:34:30.391Z,3.67
2022-08-17T04:37:34.442Z,3.90
2022-08-17T04:40:57.007Z,3.90
2022-08-17T04:44:01.528Z,3.45
2022-08-17T04:48:01.089Z,3.65
2022-08-17T04:51:20.901Z,3.60
2022-08-17T04:54:25.092Z,4.18
2022-08-17T04:57:28.797Z,4.40
2022-08-17T05:00:33.802Z,4.18
2022-08-17T05:03:38.363Z,3.75
2022-08-17T05:06:42.642Z,3.85
2022-08-17T05:09:46.870Z,3.80
2022-08-17T05:13:02.686Z,4.00
2022-08-17T05:16:07.266Z,4.15
2022-08-17T05:19:11.066Z,4.18
2022-08-17T05:22:15.163Z,4.38
2022-08-17T05:25:29.889Z,4.18
2022-08-17T05:28:37.100Z,4.25
2022-08-17T05:31:41.919Z,5.57
2022-08-17T05:34:45.711Z,4.32
2022-08-17T05:37:50.717Z,4.32
2022-08-17T05:40:55.343Z,4.13
2022-08-17T05:43:59.587Z,4.28
2022-08-17T05:47:09.899Z,4.70
2022-08-17T05:50:25.774Z,4.22
2022-08-17T05:54:02.264Z,4.45
2022-08-17T05:57:34.964Z,4.72
2022-08-17T06:00:56.617Z,4.72
2022-08-17T06:04:26.842Z,4.68
2022-08-17T06:07:39.585Z,4.65
2022-08-17T06:11:12.853Z,4.53
2022-08-17T06:14:31.463Z,4.45
2022-08-17T06:17:36.678Z,4.40
2022-08-17T06:20:53.222Z,4.68
2022-08-17T06:24:05.684Z,4.85
2022-08-17T06:27:30.270Z,5.22
2022-08-17T06:30:58.659Z,4.82
2022-08-17T06:34:10.703Z,5.22
2022-08-17T06:37:27.218Z,4.72
2022-08-17T06:40:45.510Z,4.63
2022-08-17T06:44:02.933Z,4.47
2022-08-17T06:47:28.378Z,5.78
2022-08-17T06:50:43.967Z,4.95
2022-08-17T06:53:55.516Z,5.15
2022-08-17T06:57:14.482Z,5.43
2022-08-17T07:00:23.120Z,6.00
2022-08-17T07:03:54.508Z,5.70
2022-08-17T07:07:29.856Z,6.60
2022-08-17T07:10:53.865Z,4.95
2022-08-17T07:13:57.971Z,5.22
2022-08-17T07:17:11.352Z,5.25
2022-08-17T07:20:20.556Z,4.60
2022-08-17T07:23:40.109Z,4.93
2022-08-17T07:26:44.143Z,4.38
2022-08-17T07:30:03.804Z,4.50
2022-08-17T07:33:14.609Z,4.05
2022-08-17T07:36:29.587Z,4.40
2022-08-17T07:39:34.327Z,4.22
2022-08-17T07:43:22.044Z,4.40
2022-08-17T07:46:51.434Z,4.40
2022-08-17T07:49:55.544Z,4.70
2022-08-17T07:53:16.392Z,4.95
2022-08-17T07:56:39.007Z,4.30
2022-08-17T08:00:03.059Z,3.88
2022-08-17T08:03:28.431Z,4.43
2022-08-17T08:06:32.973Z,4.18
2022-08-17T08:09:42.780Z,4.20
2022-08-17T08:13:00.546Z,4.00
2022-08-17T08:16:17.431Z,3.65
2022-08-17T08:19:21.558Z,4.20
2022-08-17T08:22:36.907Z,5.00
2022-08-17T08:26:07.254Z,3.80
2022-08-17T08:29:32.216Z,4.07
2022-08-17T08:32:53.519Z,3.60
2022-08-17T08:37:12.911Z,3.50
2022-08-17T08:40:20.305Z,3.63
2022-08-17T08:43:53.087Z,3.40
2022-08-17T08:47:35.460Z,3.80
2022-08-17T08:50:54.642Z,3.42
2022-08-17T08:54:15.622Z,4.20
2022-08-17T08:57:33.506Z,3.60
2022-08-17T09:00:43.816Z,3.20
2022-08-17T09:04:24.555Z,3.47
2022-08-17T09:08:11.061Z,3.60
2022-08-17T09:12:01.106Z,3.97
2022-08-17T09:15:17.767Z,3.45
2022-08-17T09:19:00.954Z,3.63
2022-08-17T09:22:01.024Z,3.40
2022-08-17T09:25:28.929Z,3.65
2022-08-17T09:28:36.481Z,3.70
2022-08-17T09:31:53.376Z,3.50
2022-08-17T09:35:02.609Z,3.17
2022-08-17T09:38:22.420Z,3.13
2022-08-17T09:42:13.554Z,4.20
2022-08-17T09:45:32.470Z,3.33
2022-08-17T09:48:55.194Z,3.17
2022-08-17T09:52:18.401Z,3.20
2022-08-17T09:55:44.577Z,3.13
2022-08-17T09:59:47.278Z,2.95
2022-08-17T10:03:00.271Z,2.92
2022-08-17T10:06:22.157Z,3.10
2022-08-17T10:09:50.183Z,3.03
2022-08-17T10:13:12.569Z,2.85
2022-08-17T10:16:39.808Z,3.17
2022-08-17T10:20:01.059Z,3.03
2022-08-17T10:23:46.628Z,2.70
2022-08-17T10:26:56.481Z,2.70
2022-08-17T10:30:04.682Z,2.80
2022-08-17T10:33:17.347Z,2.60
2022-08-17T10:37:06.561Z,2.90
2022-08-17T10:40:36.824Z,2.60
2022-08-17T10:44:39.280Z,2.60
2022-08-17T10:48:07.693Z,2.40
2022-08-17T10:51:38.605Z,2.78
2022-08-17T10:54:46.638Z,2.47
2022-08-17T10:57:51.109Z,2.63
2022-08-17T11:00:58.499Z,2.60
2022-08-17T11:04:26.887Z,2.58
2022-08-17T11:07:46.461Z,2.58
2022-08-17T11:11:19.818Z,2.80
2022-08-17T11:17:43.576Z,2.47
2022-08-17T11:21:04.209Z,2.53
2022-08-17T11:24:14.188Z,2.40
2022-08-17T11:27:31.544Z,2.53
2022-08-17T11:30:48.597Z,2.55
2022-08-17T11:33:57.748Z,2.38
2022-08-17T11:37:59.001Z,2.60
2022-08-17T11:41:33.450Z,2.20
2022-08-17T11:45:17.549Z,2.50
2022-08-17T11:49:13.298Z,2.40
2022-08-17T11:52:38.535Z,2.20
2022-08-17T11:55:44.951Z,2.20
2022-08-17T11:58:49.338Z,1.95
2022-08-17T12:01:56.660Z,2.03
2022-08-17T12:05:27.460Z,2.20
2022-08-17T12:08:38.274Z,2.30
2022-08-17T12:11:55.601Z,2.40
2022-08-17T12:15:29.934Z,2.20
2022-08-17T12:18:38.309Z,2.20
2022-08-17T12:21:54.944Z,2.00
2022-08-17T12:25:14.706Z,2.38
2022-08-17T12:28:26.222Z,2.08
2022-08-17T12:31:47.285Z,3.30
2022-08-17T12:34:51.594Z,2.20
2022-08-17T12:38:00.099Z,2.08
2022-08-17T12:41:25.458Z,1.95
2022-08-17T12:44:34.881Z,2.03
2022-08-17T12:47:39.977Z,1.90
2022-08-17T12:50:45.803Z,1.80
2022-08-17T12:53:54.356Z,2.03
2022-08-17T12:57:12.586Z,1.95
2022-08-17T13:00:30.285Z,2.10
2022-08-17T13:03:45.516Z,1.90
2022-08-17T13:06:51.818Z,1.88
2022-08-17T13:10:04.399Z,1.92
2022-08-17T13:13:22.856Z,2.00
2022-08-17T13:16:30.200Z,1.90
2022-08-17T13:19:40.817Z,1.92
2022-08-17T13:22:53.703Z,1.88
2022-08-17T13:29:27.046Z,1.90
2022-08-17T13:32:31.137Z,1.70
2022-08-17T13:35:45.888Z,2.00
2022-08-17T13:39:12.804Z,1.85
2022-08-17T13:42:52.814Z,2.10
2022-08-17T13:46:08.154Z,2.00
2022-08-17T13:49:13.940Z,2.10
2022-08-17T13:52:38.670Z,2.15
2022-08-17T13:55:56.014Z,2.10
2022-08-17T13:59:11.108Z,2.10
2022-08-17T14:02:17.678Z,1.95
2022-08-17T14:05:21.802Z,1.90
2022-08-17T14:08:26.441Z,2.25
2022-08-17T14:11:30.755Z,2.42
2022-08-17T14:14:35.039Z,2.00
2022-08-17T14:17:39.613Z,2.00
2022-08-17T14:20:44.337Z,2.10
2022-08-17T14:23:54.483Z,2.00
2022-08-17T14:27:00.236Z,2.10
2022-08-17T14:30:07.767Z,1.80
2022-08-17T14:33:12.505Z,2.00
2022-08-17T14:36:16.802Z,1.90
2022-08-17T14:39:21.005Z,2.20
2022-08-17T14:42:27.764Z,2.20
2022-08-17T14:45:33.501Z,2.40
2022-08-17T14:48:38.822Z,1.95
2022-08-17T14:51:44.158Z,2.20
2022-08-17T14:54:51.255Z,2.00
2022-08-17T14:57:55.200Z,1.90
2022-08-17T15:00:59.294Z,2.67
2022-08-17T15:04:03.277Z,2.10
2022-08-17T15:07:08.004Z,2.20
2022-08-17T15:10:14.486Z,1.77
2022-08-17T15:13:22.195Z,1.92
2022-08-17T15:16:26.992Z,1.83
2022-08-17T15:19:31.288Z,1.70
2022-08-17T15:22:35.813Z,2.03
2022-08-17T15:25:39.911Z,1.92
2022-08-17T15:28:43.951Z,1.90
2022-08-17T15:31:58.658Z,2.13
2022-08-17T15:35:06.946Z,2.20
2022-08-17T15:38:12.427Z,1.85
2022-08-17T15:41:18.439Z,1.95
2022-08-17T15:44:22.425Z,2.10
2022-08-17T15:47:37.248Z,1.80
2022-08-17T15:50:42.985Z,1.92
2022-08-17T15:53:49.258Z,2.00
2022-08-17T15:56:53.294Z,1.90
2022-08-17T15:59:58.716Z,2.00
2022-08-17T16:03:13.363Z,2.20
2022-08-17T16:06:27.451Z,2.03
2022-08-17T16:09:31.588Z,1.90
2022-08-17T16:12:36.614Z,1.98
2022-08-17T16:15:40.395Z,1.80
2022-08-17T16:18:44.474Z,2.10
2022-08-17T16:21:48.664Z,1.98
2022-08-17T16:24:57.545Z,1.85
2022-08-17T16:28:01.833Z,2.05
2022-08-17T16:31:07.979Z,1.92
2022-08-17T16:34:16.879Z,2.00
2022-08-17T16:37:22.833Z,2.20
2022-08-17T16:40:31.267Z,2.10
2022-08-17T16:43:40.016Z,2.00
2022-08-17T16:46:45.683Z,2.13
2022-08-17T16:49:50.556Z,2.15
2022-08-17T16:53:11.057Z,2.00
2022-08-17T16:56:17.922Z,2.03
2022-08-17T16:59:30.350Z,2.13
2022-08-17T17:02:47.138Z,2.00
2022-08-17T17:06:01.476Z,1.88
2022-08-17T17:09:14.106Z,1.95
2022-08-17T17:12:19.189Z,2.10
2022-08-17T17:15:51.652Z,2.00
2022-08-17T17:19:14.367Z,2.10
2022-08-17T17:22:40.874Z,1.85
2022-08-17T17:25:56.234Z,2.10
2022-08-17T17:29:47.173Z,2.10
2022-08-17T17:33:14.289Z,2.20
2022-08-17T17:36:31.121Z,2.03
2022-08-17T17:39:51.535Z,2.08
2022-08-17T17:43:14.168Z,2.10
2022-08-17T17:46:29.257Z,2.05
2022-08-17T17:49:38.198Z,2.13
2022-08-17T17:53:02.100Z,2.42
2022-08-17T17:56:33.059Z,2.28
2022-08-17T18:00:01.986Z,2.30
2022-08-17T18:03:28.405Z,2.40
2022-08-17T18:07:15.205Z,2.38
2022-08-17T18:10:30.298Z,2.20
2022-08-17T18:13:53.474Z,2.45
2022-08-17T18:17:00.285Z,2.63
2022-08-17T18:20:06.902Z,2.17
2022-08-17T18:23:10.817Z,2.90
2022-08-17T18:26:45.148Z,2.50
2022-08-17T18:29:53.150Z,2.25
2022-08-17T18:33:22.223Z,2.40
2022-08-17T18:36:29.246Z,2.63
2022-08-17T18:39:34.086Z,2.30
2022-08-17T18:42:38.709Z,2.70
2022-08-17T18:45:48.053Z,2.60
2022-08-17T18:48:59.797Z,2.55
2022-08-17T18:52:25.991Z,2.42
2022-08-17T18:55:31.211Z,2.40
2022-08-17T18:58:35.242Z,2.47
2022-08-17T19:02:01.892Z,2.30
2022-08-17T19:05:30.322Z,2.17
2022-08-17T19:08:35.921Z,2.75
2022-08-17T19:11:40.057Z,2.67
2022-08-17T19:14:44.243Z,3.05
2022-08-17T19:17:53.246Z,2.65
2022-08-17T19:21:11.838Z,2.65
2022-08-17T19:24:19.755Z,2.70
2022-08-17T19:27:52.597Z,2.50
2022-08-17T19:31:06.757Z,2.60
2022-08-17T19:34:16.042Z,2.53
2022-08-17T19:37:38.401Z,2.70
2022-08-17T19:40:55.999Z,2.90
2022-08-17T19:44:15.274Z,2.90
2022-08-17T19:47:54.920Z,2.70
2022-08-17T19:51:09.831Z,3.15
2022-08-17T19:54:18.259Z,2.70
2022-08-17T19:57:54.931Z,2.80
2022-08-17T20:00:59.358Z,2.85
2022-08-17T20:04:25.186Z,3.40
2022-08-17T20:07:56.662Z,2.85
2022-08-17T20:11:10.147Z,3.45
2022-08-17T20:17:43.250Z,3.15
2022-08-17T20:20:56.637Z,3.10
2022-08-17T20:24:22.484Z,3.13
2022-08-17T20:28:05.786Z,3.10
2022-08-17T20:34:39.732Z,3.25
2022-08-17T20:38:02.113Z,3.55
2022-08-17T20:41:12.974Z,3.22
2022-08-17T20:44:34.925Z,3.10
2022-08-17T20:48:07.309Z,2.92
2022-08-17T20:51:27.144Z,3.60
2022-08-17T20:54:56.978Z,2.88
2022-08-17T20:58:30.015Z,3.17
2022-08-17T21:01:40.301Z,3.45
2022-08-17T21:04:50.326Z,3.60
2022-08-17T21:07:58.611Z,3.40
2022-08-17T21:12:03.033Z,3.03
2022-08-17T21:15:03.727Z,3.33
2022-08-17T21:18:30.431Z,3.40
2022-08-17T21:21:51.019Z,3.53
2022-08-17T21:25:24.752Z,3.60
2022-08-17T21:29:30.039Z,3.40
2022-08-17T21:32:30.359Z,3.25
2022-08-17T21:36:17.262Z,3.53
2022-08-17T21:39:33.752Z,3.42
2022-08-17T21:42:46.517Z,3.40
2022-08-17T21:46:06.656Z,3.53
2022-08-17T21:49:14.354Z,3.63
2022-08-17T21:52:23.729Z,3.72
2022-08-17T21:55:29.388Z,3.15
2022-08-17T21:58:36.648Z,3.92
2022-08-17T22:01:41.111Z,3.33
2022-08-17T22:05:02.830Z,3.67
2022-08-17T22:08:18.219Z,3.40
2022-08-17T22:11:22.602Z,3.45
2022-08-17T22:14:52.063Z,3.40
2022-08-17T22:18:01.569Z,3.50
2022-08-17T22:21:06.921Z,3.58
2022-08-17T22:24:21.958Z,3.22
2022-08-17T22:27:57.459Z,4.00
2022-08-17T22:31:04.346Z,3.95
2022-08-17T22:34:14.575Z,4.15
2022-08-17T22:37:28.482Z,4.43
2022-08-17T22:40:34.394Z,4.50
2022-08-17T22:43:38.955Z,4.35
2022-08-17T22:47:14.309Z,4.93
2022-08-17T22:50:24.800Z,4.40
2022-08-17T22:53:47.670Z,4.90
2022-08-17T22:57:23.325Z,5.07
2022-08-17T23:00:35.742Z,4.95
2022-08-17T23:03:57.654Z,4.72
2022-08-17T23:07:01.823Z,4.85
2022-08-17T23:10:06.656Z,5.00
2022-08-17T23:13:13.332Z,4.50
2022-08-17T23:16:17.616Z,4.38
2022-08-17T23:19:22.020Z,4.50
2022-08-17T23:22:25.798Z,4.72
2022-08-17T23:25:31.913Z,4.05
2022-08-17T23:28:37.266Z,3.88
2022-08-17T23:31:41.590Z,4.22
2022-08-17T23:34:47.703Z,3.90
2022-08-17T23:37:53.805Z,4.22
2022-08-17T23:41:00.161Z,3.97
2022-08-17T23:44:06.379Z,3.90
2022-08-17T23:47:11.157Z,4.40
2022-08-17T23:50:16.015Z,4.03
2022-08-17T23:53:22.826Z,4.25
2022-08-17T23:56:26.989Z,4.18
2022-08-17T23:59:33.825Z,4.60
